TimeEST,TemperatureF,Dew PointF,Humidity,Sea Level PressureIn,VisibilityMPH,Wind Direction,Wind SpeedMPH,Gust SpeedMPH,PrecipitationIn,Events,Conditions,WindDirDegrees,DateUTC
12:53 AM,50.0,46.9,89,30.02,10.0,SW,3.5,-,0.03,,Overcast,220,2013-12-09 05:53:00
1:15 AM,48.9,46.9,93,30.02,10.0,West,4.6,-,N/A,,Overcast,270,2013-12-09 06:15:00
1:53 AM,44.1,42.1,93,30.05,3.0,WNW,8.1,-,0.01,Rain,Light Rain,300,2013-12-09 06:53:00
2:40 AM,44.1,41.0,89,30.04,6.0,WNW,9.2,-,0.00,,Overcast,290,2013-12-09 07:40:00
2:53 AM,44.1,41.0,89,30.06,5.0,West,5.8,-,0.00,,Overcast,280,2013-12-09 07:53:00
3:53 AM,43.0,39.9,89,30.06,10.0,West,6.9,-,0.01,Rain,Light Rain,280,2013-12-09 08:53:00
4:17 AM,43.0,39.9,89,30.06,5.0,West,8.1,-,0.00,Rain,Light Rain,280,2013-12-09 09:17:00
4:53 AM,43.0,39.9,89,30.08,5.0,WNW,8.1,-,0.01,,Overcast,290,2013-12-09 09:53:00
5:06 AM,43.0,39.9,89,30.06,7.0,WNW,9.2,-,N/A,,Overcast,290,2013-12-09 10:06:00
5:53 AM,42.1,39.9,92,30.08,10.0,West,8.1,-,N/A,,Overcast,270,2013-12-09 10:53:00
6:53 AM,41.0,37.9,89,30.11,5.0,WNW,10.4,-,0.01,Rain,Light Rain,290,2013-12-09 11:53:00
7:53 AM,39.9,37.9,93,30.14,10.0,West,8.1,-,0.00,,Overcast,280,2013-12-09 12:53:00
8:53 AM,37.9,35.1,89,30.15,10.0,WNW,6.9,-,N/A,,Overcast,290,2013-12-09 13:53:00
9:53 AM,37.9,35.1,89,30.17,10.0,WNW,8.1,-,N/A,,Overcast,300,2013-12-09 14:53:00
10:20 AM,37.0,35.1,93,30.18,9.0,WNW,12.7,-,N/A,,Overcast,290,2013-12-09 15:20:00
10:53 AM,37.0,34.0,89,30.19,10.0,WNW,9.2,-,N/A,,Overcast,290,2013-12-09 15:53:00
11:12 AM,37.0,34.0,89,30.18,10.0,WNW,10.4,-,N/A,,Overcast,290,2013-12-09 16:12:00
11:53 AM,37.0,34.0,89,30.19,10.0,West,8.1,-,N/A,,Overcast,270,2013-12-09 16:53:00
12:53 PM,37.0,33.1,86,30.16,10.0,WSW,8.1,-,N/A,,Overcast,250,2013-12-09 17:53:00
1:53 PM,37.0,34.0,89,30.16,10.0,West,8.1,-,N/A,,Overcast,280,2013-12-09 18:53:00
2:53 PM,37.0,33.1,86,30.19,10.0,WNW,10.4,-,N/A,,Overcast,300,2013-12-09 19:53:00
3:35 PM,37.0,30.9,79,30.18,10.0,WNW,8.1,-,N/A,,Overcast,290,2013-12-09 20:35:00
3:53 PM,36.0,30.9,82,30.19,10.0,WNW,10.4,-,N/A,,Overcast,290,2013-12-09 20:53:00
4:53 PM,36.0,30.0,79,30.20,10.0,West,5.8,-,N/A,,Overcast,280,2013-12-09 21:53:00
5:53 PM,35.1,30.0,82,30.22,10.0,WNW,6.9,-,N/A,,Overcast,300,2013-12-09 22:53:00
6:53 PM,35.1,28.9,78,30.22,10.0,Calm,Calm,-,N/A,,Overcast,0,2013-12-09 23:53:00
7:53 PM,34.0,28.0,79,30.22,10.0,NW,5.8,-,N/A,,Unknown,320,2013-12-10 00:53:00
8:05 PM,34.0,28.0,79,30.20,10.0,NW,5.8,-,N/A,,Overcast,320,2013-12-10 01:05:00
8:53 PM,34.0,28.0,79,30.20,10.0,NNW,4.6,-,N/A,,Overcast,330,2013-12-10 01:53:00
9:53 PM,33.1,28.0,82,30.17,10.0,NNE,4.6,-,N/A,,Overcast,20,2013-12-10 02:53:00
10:53 PM,33.1,28.0,82,30.15,10.0,NNE,3.5,-,N/A,,Overcast,30,2013-12-10 03:53:00
11:53 PM,33.1,28.0,82,30.11,10.0,NNE,9.2,-,N/A,,Overcast,20,2013-12-10 04:53:00